Time;durP1;ratioP1;P1;durP2;ratioP2;P2;SDS_P1;SDS_P2;PMS_P1;PMS_P2;Temp;Humidity;BMP_temperature;BMP_pressure;BME280_temperature;BME280_humidity;BME280_pressure;Samples;Min_cycle;Max_cycle;Signal;HPM_P1;HPM_P2
2022/08/19 00:01:55;;;;;;;6.47;5.97;;;24.10;68.70;;;;;;5093648;28;20196;-69
2022/08/19 00:04:27;;;;;;;6.63;6.13;;;24.10;68.50;;;;;;5093680;28;20303;-70
2022/08/19 00:06:53;;;;;;;6.43;5.93;;;24.10;68.60;;;;;;5075417;28;20188;-70
2022/08/19 00:09:22;;;;;;;6.75;6.25;;;24.10;68.60;;;;;;5074622;28;20283;-70
2022/08/19 00:11:49;;;;;;;6.25;5.75;;;24.10;68.60;;;;;;5092936;28;20173;-70
2022/08/19 00:14:17;;;;;;;6.55;6.05;;;24.10;68.60;;;;;;5093625;28;20223;-70
2022/08/19 00:16:47;;;;;;;6.60;6.10;;;24.10;68.60;;;;;;5075276;28;20185;-70
2022/08/19 00:19:13;;;;;;;6.13;5.63;;;24.10;68.60;;;;;;5074482;28;20200;-70
2022/08/19 00:21:39;;;;;;;7.07;6.50;;;24.10;68.60;;;;;;5075488;28;20245;-70
2022/08/19 00:24:11;;;;;;;6.95;6.43;;;24.10;68.60;;;;;;5075217;28;20680;-69
2022/08/19 00:26:38;;;;;;;6.47;5.88;;;24.10;68.60;;;;;;5075392;28;20238;-70
2022/08/19 00:29:07;;;;;;;6.25;5.75;;;24.10;68.60;;;;;;5057614;28;20211;-70
2022/08/19 00:31:33;;;;;;;6.40;5.90;;;24.10;68.60;;;;;;5107645;28;20184;-70
2022/08/19 00:33:59;;;;;;;6.22;5.78;;;24.10;68.50;;;;;;5096468;28;20184;-70
2022/08/19 00:36:25;;;;;;;6.80;6.30;;;24.10;68.40;;;;;;5112268;28;20230;-70
2022/08/19 00:38:52;;;;;;;6.63;6.13;;;24.10;68.50;;;;;;5094823;28;20204;-70
2022/08/19 00:41:21;;;;;;;6.75;6.25;;;24.10;68.50;;;;;;5112281;28;20267;-70
2022/08/19 00:44:04;;;;;;;6.60;6.10;;;24.10;68.50;;;;;;5095069;28;20238;-69
2022/08/19 00:46:32;;;;;;;7.07;6.47;;;24.10;68.60;;;;;;5094905;28;20188;-70
2022/08/19 00:48:59;;;;;;;6.75;6.25;;;24.10;68.60;;;;;;5077320;28;20200;-70
2022/08/19 00:51:32;;;;;;;6.35;5.85;;;24.10;68.60;;;;;;5094865;28;20703;-70
2022/08/19 00:54:00;;;;;;;6.82;6.32;;;24.10;68.50;;;;;;5095080;28;20191;-70
2022/08/19 00:56:27;;;;;;;6.50;6.07;;;24.10;68.60;;;;;;5094855;28;20184;-70
2022/08/19 00:58:57;;;;;;;7.15;6.55;;;24.10;68.40;;;;;;5077121;28;20207;-70
2022/08/19 01:01:23;;;;;;;6.80;6.20;;;24.10;68.60;;;;;;5094760;28;20180;-70
2022/08/19 01:03:50;;;;;;;6.57;6.07;;;24.10;68.50;;;;;;5094516;28;20215;-70
2022/08/19 01:06:16;;;;;;;6.85;6.35;;;24.10;68.60;;;;;;5112801;28;20214;-70
2022/08/19 01:08:42;;;;;;;6.32;5.93;;;24.10;68.50;;;;;;5077211;28;20359;-70
2022/08/19 01:11:08;;;;;;;6.47;6.05;;;24.10;68.50;;;;;;5077200;28;20711;-70
2022/08/19 01:13:36;;;;;;;6.55;6.05;;;24.10;68.60;;;;;;5111536;28;20208;-70
2022/08/19 01:16:08;;;;;;;6.88;6.38;;;24.10;68.50;;;;;;5077592;28;20192;-71
2022/08/19 01:18:40;;;;;;;6.53;6.03;;;24.00;68.40;;;;;;5110779;28;20288;-69
2022/08/19 01:21:21;;;;;;;6.95;6.45;;;24.10;68.60;;;;;;5077505;28;20180;-70
2022/08/19 01:23:48;;;;;;;7.35;6.75;;;24.00;68.30;;;;;;5112561;28;20208;-70
2022/08/19 01:26:23;;;;;;;7.50;6.90;;;24.00;68.50;;;;;;5094530;28;20183;-70
2022/08/19 01:28:53;;;;;;;6.95;6.45;;;24.00;68.40;;;;;;5093814;28;20245;-70
2022/08/19 01:31:26;;;;;;;6.63;6.13;;;24.00;68.30;;;;;;5112655;28;20187;-69
2022/08/19 01:33:55;;;;;;;7.30;6.70;;;24.10;68.50;;;;;;5094150;28;20191;-70
2022/08/19 01:36:32;;;;;;;6.68;6.18;;;24.10;68.70;;;;;;5112458;28;20188;-69
2022/08/19 01:39:02;;;;;;;6.72;6.22;;;24.00;68.40;;;;;;5093164;28;20204;-70
2022/08/19 01:41:27;;;;;;;6.88;6.38;;;24.10;68.60;;;;;;5092470;28;20180;-70
2022/08/19 01:43:54;;;;;;;6.22;5.82;;;24.00;68.50;;;;;;5077324;28;20212;-70
2022/08/19 01:46:20;;;;;;;7.32;6.72;;;24.10;68.60;;;;;;5112088;28;20617;-70
2022/08/19 01:48:47;;;;;;;6.60;6.10;;;24.10;68.60;;;;;;5093449;28;20241;-70
2022/08/19 01:51:14;;;;;;;7.05;6.45;;;24.10;68.50;;;;;;5094091;28;20179;-70
2022/08/19 01:53:40;;;;;;;7.53;6.93;;;24.00;68.50;;;;;;5112364;28;20188;-70
2022/08/19 01:56:07;;;;;;;7.22;6.60;;;24.00;68.40;;;;;;5110104;28;20237;-71
2022/08/19 01:58:50;;;;;;;7.15;6.55;;;24.00;68.40;;;;;;5080595;28;20219;-70
2022/08/19 02:01:17;;;;;;;6.78;6.28;;;24.00;68.40;;;;;;5098577;28;20218;-70
2022/08/19 02:03:43;;;;;;;7.05;6.53;;;24.10;68.60;;;;;;5112005;28;20238;-70
2022/08/19 02:06:09;;;;;;;7.13;6.57;;;24.00;68.30;;;;;;5077124;28;20187;-70
2022/08/19 02:08:38;;;;;;;6.95;6.38;;;24.00;68.40;;;;;;5110217;28;20208;-70
2022/08/19 02:11:06;;;;;;;7.40;6.80;;;24.00;68.30;;;;;;5110472;28;20241;-69
2022/08/19 02:13:33;;;;;;;7.97;7.30;;;24.00;68.40;;;;;;5076995;28;20202;-70
2022/08/19 02:15:59;;;;;;;7.28;6.72;;;24.00;68.50;;;;;;5079404;28;20187;-70
2022/08/19 02:18:26;;;;;;;7.57;6.97;;;24.00;68.40;;;;;;5080455;28;20264;-70
2022/08/19 02:20:52;;;;;;;7.13;6.55;;;24.00;68.40;;;;;;5110580;28;20193;-70
2022/08/19 02:23:18;;;;;;;6.50;6.00;;;24.00;68.50;;;;;;5107730;28;20196;-70
2022/08/19 02:25:47;;;;;;;7.47;6.88;;;24.00;68.50;;;;;;5097777;28;20187;-70
2022/08/19 02:28:14;;;;;;;7.65;7.05;;;24.00;68.50;;;;;;5080894;28;20196;-70
2022/08/19 02:30:42;;;;;;;7.45;6.85;;;24.00;68.50;;;;;;5097219;28;20184;-70
2022/08/19 02:33:07;;;;;;;7.05;6.55;;;24.00;68.50;;;;;;5080395;28;20176;-70
2022/08/19 02:35:33;;;;;;;6.55;6.05;;;24.00;68.40;;;;;;5097412;28;20188;-70
2022/08/19 02:41:00;;;;;;;7.32;6.72;;;24.00;68.50;;;;;;5104273;28;20204;-70
2022/08/19 02:43:28;;;;;;;7.30;6.80;;;24.00;68.50;;;;;;5095104;28;20220;-69
2022/08/19 02:45:55;;;;;;;8.13;7.43;;;24.00;68.50;;;;;;5076928;28;20181;-70
2022/08/19 02:48:24;;;;;;;7.40;6.82;;;24.00;68.40;;;;;;5077271;28;20193;-70
2022/08/19 02:50:55;;;;;;;7.07;6.53;;;24.00;68.40;;;;;;5077171;28;20180;-70
2022/08/19 02:53:27;;;;;;;7.05;6.53;;;24.00;68.40;;;;;;5095080;28;20189;-70
2022/08/19 02:55:53;;;;;;;7.40;6.80;;;24.00;68.40;;;;;;5076675;28;20196;-69
2022/08/19 02:58:21;;;;;;;7.57;6.90;;;24.00;68.50;;;;;;5076946;28;20214;-70
2022/08/19 03:00:56;;;;;;;7.15;6.65;;;24.00;68.50;;;;;;5059927;28;20189;-69
2022/08/19 03:03:21;;;;;;;7.43;6.82;;;24.00;68.50;;;;;;5076593;28;20215;-70
2022/08/19 03:05:48;;;;;;;7.30;6.80;;;24.00;68.40;;;;;;5059958;28;20255;-71
2022/08/19 03:08:14;;;;;;;6.80;6.30;;;24.00;68.40;;;;;;5094566;28;20204;-70
2022/08/19 03:10:44;;;;;;;6.95;6.45;;;23.90;68.30;;;;;;5075955;28;20242;-70
2022/08/19 03:13:15;;;;;;;7.45;6.85;;;24.00;68.50;;;;;;5043005;28;20185;-69
2022/08/19 03:15:44;;;;;;;7.78;7.15;;;24.00;68.50;;;;;;5076760;28;20181;-70
2022/08/19 03:18:11;;;;;;;7.60;6.90;;;24.00;68.50;;;;;;5076435;28;20204;-70
2022/08/19 03:20:46;;;;;;;7.85;7.18;;;24.00;68.50;;;;;;5075831;28;20548;-70
2022/08/19 03:23:14;;;;;;;8.20;7.50;;;24.00;68.50;;;;;;5094451;28;20327;-69
2022/08/19 03:25:43;;;;;;;7.50;6.90;;;24.00;68.50;;;;;;5075957;28;20208;-70
2022/08/19 03:28:12;;;;;;;7.28;6.70;;;24.00;68.50;;;;;;5075366;28;20300;-70
2022/08/19 03:30:40;;;;;;;7.75;7.15;;;24.00;68.60;;;;;;5075658;28;20219;-70
2022/08/19 03:33:07;;;;;;;7.68;7.07;;;24.00;68.60;;;;;;5094251;28;20193;-70
2022/08/19 03:35:36;;;;;;;7.22;6.63;;;24.00;68.50;;;;;;5076039;28;20189;-70
2022/08/19 03:38:09;;;;;;;7.95;7.25;;;24.00;68.50;;;;;;5083697;28;20212;-70
2022/08/19 03:40:37;;;;;;;6.78;6.28;;;24.00;68.60;;;;;;5095667;28;20647;-69
2022/08/19 03:43:02;;;;;;;7.22;6.68;;;24.00;68.50;;;;;;5113129;28;20675;-69
2022/08/19 03:45:29;;;;;;;6.88;6.28;;;23.90;68.40;;;;;;5113374;28;20183;-70
2022/08/19 03:47:55;;;;;;;6.85;6.35;;;24.00;68.60;;;;;;5096123;28;20204;-70
2022/08/19 03:50:21;;;;;;;8.00;7.40;;;23.90;68.50;;;;;;5095652;28;20176;-69
2022/08/19 03:52:52;;;;;;;8.02;7.38;;;24.00;68.60;;;;;;5114295;28;20248;-70
2022/08/19 03:55:19;;;;;;;7.68;7.07;;;24.00;68.60;;;;;;5114252;28;20263;-70
2022/08/19 03:57:45;;;;;;;8.07;7.38;;;23.90;68.40;;;;;;5096024;28;20258;-70
2022/08/19 04:00:12;;;;;;;7.13;6.53;;;23.90;68.40;;;;;;5113669;28;20248;-69
2022/08/19 04:02:38;;;;;;;7.95;7.35;;;23.90;68.50;;;;;;5112717;28;20204;-70
2022/08/19 04:05:05;;;;;;;7.55;6.95;;;23.90;68.40;;;;;;5113911;28;20176;-70
2022/08/19 04:07:31;;;;;;;7.97;7.28;;;23.90;68.50;;;;;;5095773;28;20184;-70
2022/08/19 04:09:56;;;;;;;7.70;7.00;;;23.90;68.40;;;;;;5095351;28;20188;-70
2022/08/19 04:12:22;;;;;;;8.32;7.63;;;23.90;68.50;;;;;;5095548;28;20192;-70
2022/08/19 04:14:48;;;;;;;7.57;6.97;;;23.90;68.50;;;;;;5113817;28;20176;-70
2022/08/19 04:17:14;;;;;;;7.63;7.00;;;23.90;68.50;;;;;;5095662;28;20188;-70
2022/08/19 04:19:40;;;;;;;7.03;6.43;;;23.90;68.50;;;;;;5113592;28;20249;-70
2022/08/19 04:22:06;;;;;;;7.22;6.63;;;23.90;68.50;;;;;;5113333;28;20180;-70
2022/08/19 04:24:34;;;;;;;7.38;6.88;;;23.90;68.50;;;;;;5113537;28;20209;-70
2022/08/19 04:27:02;;;;;;;7.75;7.10;;;23.90;68.60;;;;;;5095433;28;20176;-70
2022/08/19 04:29:29;;;;;;;7.18;6.57;;;23.90;68.60;;;;;;5113425;28;20196;-70
2022/08/19 04:31:56;;;;;;;7.50;6.90;;;23.90;68.60;;;;;;5112124;28;20184;-70
2022/08/19 04:34:26;;;;;;;7.55;6.85;;;23.90;68.50;;;;;;5113614;28;20191;-70
2022/08/19 04:36:54;;;;;;;7.30;6.70;;;23.90;68.40;;;;;;5113330;28;20234;-71
2022/08/19 04:42:38;;;;;;;7.70;7.00;;;23.90;68.40;;;;;;5112323;28;20256;-70
2022/08/19 04:45:03;;;;;;;7.40;6.80;;;23.90;68.40;;;;;;5113069;28;20240;-70
2022/08/19 04:47:30;;;;;;;6.75;6.25;;;23.90;68.50;;;;;;5094891;28;20181;-70
2022/08/19 04:49:57;;;;;;;7.80;7.10;;;23.90;68.50;;;;;;5077579;28;20188;-70
2022/08/19 04:52:23;;;;;;;7.28;6.72;;;23.90;68.50;;;;;;5094875;28;20192;-70
2022/08/19 04:54:48;;;;;;;7.43;6.85;;;23.90;68.60;;;;;;5111839;28;20191;-69
2022/08/19 04:57:15;;;;;;;7.20;6.60;;;23.90;68.50;;;;;;5077901;28;20284;-70
2022/08/19 04:59:40;;;;;;;7.57;6.97;;;23.90;68.50;;;;;;5094177;28;20192;-70
2022/08/19 05:02:08;;;;;;;7.57;6.97;;;23.90;68.60;;;;;;5094761;28;20184;-70
2022/08/19 05:04:38;;;;;;;7.70;7.10;;;23.90;68.60;;;;;;5094726;28;20184;-70
2022/08/19 05:07:04;;;;;;;7.45;6.85;;;23.90;68.60;;;;;;5112859;28;20211;-70
2022/08/19 05:09:30;;;;;;;8.50;7.80;;;23.90;68.50;;;;;;5077111;28;20231;-70
2022/08/19 05:11:56;;;;;;;8.07;7.45;;;23.90;68.50;;;;;;5112378;28;20173;-70
2022/08/19 05:14:22;;;;;;;8.60;7.85;;;23.90;68.50;;;;;;5077465;28;20248;-70
2022/08/19 05:16:48;;;;;;;8.23;7.53;;;23.90;68.50;;;;;;5094411;28;20194;-70
2022/08/19 05:24:45;;;;;;;7.22;6.63;;;23.90;68.50;;;;;;5112676;28;20202;-70
2022/08/19 05:27:10;;;;;;;8.25;7.55;;;23.90;68.60;;;;;;5094206;28;20266;-70
2022/08/19 05:29:36;;;;;;;6.88;6.30;;;23.90;68.60;;;;;;5093668;28;20290;-70
2022/08/19 05:32:05;;;;;;;7.90;7.20;;;23.90;68.60;;;;;;5077504;28;20207;-70
2022/08/19 05:34:32;;;;;;;8.68;7.97;;;23.90;68.70;;;;;;5094279;28;20215;-70
2022/08/19 05:37:01;;;;;;;7.85;7.25;;;23.90;68.60;;;;;;5107345;28;20233;-70
2022/08/19 05:39:32;;;;;;;7.85;7.15;;;23.90;68.70;;;;;;5073524;28;20220;-70
2022/08/19 05:42:03;;;;;;;7.82;7.22;;;23.90;68.70;;;;;;5073837;28;20230;-70
2022/08/19 05:44:31;;;;;;;7.90;7.30;;;23.90;68.60;;;;;;5092054;28;20259;-70
2022/08/19 05:46:59;;;;;;;7.85;7.25;;;23.90;68.60;;;;;;5057030;28;20177;-70
2022/08/19 05:49:26;;;;;;;8.00;7.30;;;23.90;68.60;;;;;;5055886;28;20205;-70
2022/08/19 05:51:55;;;;;;;7.80;7.10;;;23.80;68.50;;;;;;5057144;28;20185;-70
2022/08/19 05:54:25;;;;;;;8.50;7.80;;;23.90;68.60;;;;;;5091781;28;20267;-70
2022/08/19 05:56:52;;;;;;;8.68;7.90;;;23.90;68.50;;;;;;5057076;28;20193;-70
2022/08/19 05:59:21;;;;;;;8.52;7.80;;;23.90;68.60;;;;;;5073224;28;20205;-70
2022/08/19 06:01:54;;;;;;;7.40;6.80;;;23.80;68.40;;;;;;5091868;28;20177;-70
2022/08/19 06:04:21;;;;;;;8.18;7.47;;;23.90;68.60;;;;;;5073712;28;20209;-69
2022/08/19 06:06:52;;;;;;;8.32;7.63;;;23.90;68.60;;;;;;5057063;28;20176;-70
2022/08/19 06:09:20;;;;;;;7.53;6.93;;;23.80;68.40;;;;;;5090962;28;20210;-70
2022/08/19 06:11:53;;;;;;;8.40;7.60;;;23.90;68.50;;;;;;5073318;28;20793;-70
2022/08/19 06:14:25;;;;;;;7.93;7.32;;;23.90;68.60;;;;;;5091666;28;20212;-69
2022/08/19 06:16:52;;;;;;;7.60;7.00;;;23.80;68.50;;;;;;5082939;28;20196;-70
2022/08/19 06:19:23;;;;;;;8.40;7.60;;;23.80;68.60;;;;;;5076577;28;20224;-70
2022/08/19 06:21:51;;;;;;;8.00;7.30;;;23.90;68.60;;;;;;5093840;28;20189;-70
2022/08/19 06:24:23;;;;;;;7.65;6.95;;;23.80;68.40;;;;;;5112193;28;20204;-71
2022/08/19 06:26:51;;;;;;;7.32;6.72;;;23.80;68.40;;;;;;5093671;28;20213;-70
2022/08/19 06:29:21;;;;;;;8.55;7.75;;;23.90;68.50;;;;;;5076275;28;20295;-69
2022/08/19 06:31:54;;;;;;;7.63;7.03;;;23.80;68.40;;;;;;5111710;28;20177;-70
2022/08/19 06:34:20;;;;;;;7.25;6.65;;;23.90;68.50;;;;;;5093919;28;20206;-70
2022/08/19 06:36:50;;;;;;;7.75;7.05;;;23.80;68.40;;;;;;5076958;28;20192;-70
2022/08/19 06:39:29;;;;;;;7.50;6.90;;;23.80;68.40;;;;;;5110028;28;20584;-70
2022/08/19 06:42:00;;;;;;;7.55;6.95;;;23.90;68.50;;;;;;5111842;28;20168;-70
2022/08/19 06:44:34;;;;;;;7.90;7.22;;;23.80;68.50;;;;;;5106486;28;20675;-70
2022/08/19 06:47:04;;;;;;;7.80;7.13;;;23.90;68.50;;;;;;5073398;28;20180;-70
2022/08/19 06:49:33;;;;;;;7.45;6.85;;;23.80;68.50;;;;;;5072640;28;20205;-69
2022/08/19 06:52:00;;;;;;;8.30;7.60;;;23.80;68.50;;;;;;5091329;28;20180;-70
2022/08/19 06:54:29;;;;;;;8.15;7.50;;;23.80;68.50;;;;;;5073261;28;20189;-70
2022/08/19 06:56:57;;;;;;;8.27;7.47;;;23.80;68.40;;;;;;5055997;28;20189;-70
2022/08/19 06:59:28;;;;;;;8.00;7.30;;;23.90;68.50;;;;;;5072667;28;20208;-70
2022/08/19 07:01:56;;;;;;;7.72;7.13;;;23.80;68.50;;;;;;5075330;28;20189;-70
2022/08/19 07:04:31;;;;;;;8.10;7.40;;;23.80;68.40;;;;;;5060090;28;20221;-70
2022/08/19 07:07:02;;;;;;;7.97;7.28;;;23.80;68.40;;;;;;5076622;28;20176;-70
2022/08/19 07:09:28;;;;;;;8.07;7.38;;;23.80;68.40;;;;;;5075941;28;20212;-70
2022/08/19 07:11:55;;;;;;;7.80;7.10;;;23.80;68.40;;;;;;5094453;28;20169;-70
2022/08/19 07:14:25;;;;;;;7.78;7.18;;;23.80;68.30;;;;;;5094725;28;20177;-69
2022/08/19 07:16:55;;;;;;;7.35;6.75;;;23.80;68.30;;;;;;5076709;28;20219;-70
2022/08/19 07:19:22;;;;;;;7.47;6.88;;;23.80;68.40;;;;;;5075762;28;20255;-70
2022/08/19 07:21:52;;;;;;;7.63;6.97;;;23.80;68.50;;;;;;5059775;28;20180;-70
2022/08/19 07:24:20;;;;;;;7.70;7.00;;;23.80;68.30;;;;;;5059595;28;20300;-70
2022/08/19 07:26:46;;;;;;;7.70;7.10;;;23.80;68.40;;;;;;5076421;28;20272;-70
2022/08/19 07:29:12;;;;;;;7.40;6.80;;;23.90;68.50;;;;;;5059242;28;20204;-70
2022/08/19 07:31:38;;;;;;;7.95;7.25;;;23.80;68.40;;;;;;5094234;28;20252;-70
2022/08/19 07:34:06;;;;;;;8.45;7.72;;;23.80;68.40;;;;;;5094342;28;20254;-70
2022/08/19 07:36:36;;;;;;;7.78;7.18;;;23.80;68.40;;;;;;5094299;28;20188;-71
2022/08/19 07:39:07;;;;;;;7.53;6.82;;;23.80;68.40;;;;;;5075590;28;20213;-71
2022/08/19 07:41:36;;;;;;;8.38;7.57;;;23.80;68.40;;;;;;5094154;28;20180;-70
2022/08/19 07:44:07;;;;;;;8.40;7.70;;;23.80;68.40;;;;;;5076095;28;20208;-70
2022/08/19 07:46:37;;;;;;;7.53;6.93;;;23.80;68.40;;;;;;5097930;28;20176;-69
2022/08/19 07:49:05;;;;;;;8.60;7.82;;;23.80;68.40;;;;;;5093408;28;20201;-70
2022/08/19 07:51:32;;;;;;;7.70;7.05;;;23.80;68.40;;;;;;5094070;28;20173;-70
2022/08/19 07:53:58;;;;;;;7.22;6.60;;;23.80;68.40;;;;;;5093926;28;20181;-70
2022/08/19 07:56:24;;;;;;;8.23;7.53;;;23.80;68.40;;;;;;5059314;28;20196;-70
2022/08/19 07:58:51;;;;;;;7.38;6.78;;;23.80;68.50;;;;;;5094046;28;20684;-70
2022/08/19 08:01:22;;;;;;;7.25;6.57;;;23.80;68.40;;;;;;5075261;28;20603;-70
2022/08/19 08:09:34;;;;;;;7.40;6.78;;;23.80;68.40;;;;;;5091827;28;20209;-70
2022/08/19 08:12:10;;;;;;;7.25;6.65;;;23.80;68.50;;;;;;5093077;28;20310;-70
2022/08/19 08:15:01;;;;;;;7.60;7.00;;;23.80;68.30;;;;;;5093163;28;20188;-70
2022/08/19 08:17:29;;;;;;;7.25;6.70;;;23.80;68.30;;;;;;5070480;28;20210;-70
2022/08/19 08:19:57;;;;;;;7.22;6.63;;;23.80;68.30;;;;;;5078308;28;20302;-70
2022/08/19 08:25:14;;;;;;;7.32;6.72;;;23.80;68.40;;;;;;5113857;28;20191;-70
2022/08/19 08:27:43;;;;;;;7.07;6.47;;;23.80;68.40;;;;;;5095196;28;20191;-70
2022/08/19 08:30:21;;;;;;;7.07;6.47;;;23.80;68.40;;;;;;5095020;28;20172;-70
2022/08/19 08:32:48;;;;;;;7.00;6.40;;;23.80;68.40;;;;;;5095958;28;20195;-70
2022/08/19 08:35:17;;;;;;;7.03;6.53;;;23.80;68.40;;;;;;5113425;28;20191;-70
2022/08/19 08:37:46;;;;;;;7.40;6.80;;;23.80;68.30;;;;;;5095260;28;20230;-70
2022/08/19 08:40:41;;;;;;;6.53;6.03;;;23.80;68.30;;;;;;5111791;28;20192;-70
2022/08/19 08:43:18;;;;;;;6.75;6.13;;;23.80;68.30;;;;;;5094504;28;20208;-70
2022/08/19 08:46:16;;;;;;;6.68;6.18;;;23.90;68.40;;;;;;5095246;28;20184;-70
2022/08/19 08:49:20;;;;;;;6.57;6.07;;;23.80;68.40;;;;;;5103348;28;20223;-70
2022/08/19 08:52:17;;;;;;;6.65;6.15;;;23.80;68.50;;;;;;5094759;28;20179;-70
2022/08/19 08:54:48;;;;;;;6.80;6.20;;;23.80;68.30;;;;;;5094624;28;20188;-70
2022/08/19 08:57:34;;;;;;;6.10;5.70;;;23.80;68.40;;;;;;5094938;28;20195;-70
2022/08/19 09:00:07;;;;;;;6.22;5.72;;;23.80;68.40;;;;;;5111338;28;20207;-70
2022/08/19 09:02:33;;;;;;;6.32;5.82;;;23.80;68.50;;;;;;5115582;27;20286;-70
2022/08/19 09:04:59;;;;;;;6.20;5.80;;;23.80;68.50;;;;;;5094341;28;20232;-71
2022/08/19 09:07:30;;;;;;;6.35;5.85;;;23.80;68.50;;;;;;5112730;28;20172;-70
2022/08/19 09:10:26;;;;;;;6.28;5.78;;;23.80;68.60;;;;;;5111432;28;20192;-70
2022/08/19 09:13:19;;;;;;;6.18;5.68;;;23.80;68.60;;;;;;5112731;28;20221;-70
2022/08/19 09:15:56;;;;;;;6.50;6.00;;;23.80;68.40;;;;;;5094686;28;20184;-70
2022/08/19 09:18:22;;;;;;;6.05;5.63;;;23.80;68.50;;;;;;5077678;28;20212;-70
2022/08/19 09:20:48;;;;;;;6.10;5.60;;;23.80;68.50;;;;;;5112104;28;20184;-70
2022/08/19 09:23:15;;;;;;;5.85;5.45;;;23.80;68.40;;;;;;5111612;28;20215;-70
2022/08/19 09:25:40;;;;;;;5.47;5.07;;;23.80;68.50;;;;;;5090679;28;20280;-70
2022/08/19 09:28:07;;;;;;;5.93;5.53;;;23.80;68.50;;;;;;5101689;28;20318;-70
2022/08/19 09:30:41;;;;;;;6.03;5.53;;;23.80;68.30;;;;;;5112020;28;20176;-70
2022/08/19 09:33:07;;;;;;;5.88;5.45;;;23.80;68.40;;;;;;5112436;28;20191;-70
2022/08/19 09:35:35;;;;;;;6.10;5.65;;;23.80;68.60;;;;;;5112017;28;20176;-70
2022/08/19 09:38:00;;;;;;;6.57;6.05;;;23.80;68.70;;;;;;5111023;28;20285;-70
2022/08/19 09:40:29;;;;;;;5.55;5.15;;;23.80;68.60;;;;;;5110782;28;20207;-70
2022/08/19 09:42:54;;;;;;;5.82;5.38;;;23.80;68.40;;;;;;5111277;28;20227;-70
2022/08/19 09:45:21;;;;;;;6.22;5.72;;;23.80;68.40;;;;;;5077503;28;20592;-70
2022/08/19 09:47:50;;;;;;;5.38;4.97;;;23.80;68.50;;;;;;5094005;28;20199;-70
2022/08/19 09:50:18;;;;;;;5.57;5.18;;;23.80;68.50;;;;;;5076587;28;20643;-70
2022/08/19 09:52:45;;;;;;;5.70;5.20;;;23.80;68.50;;;;;;5093554;28;20585;-70
2022/08/19 09:55:12;;;;;;;5.95;5.50;;;23.80;68.50;;;;;;5094134;28;20172;-70
2022/08/19 09:57:38;;;;;;;4.88;4.57;;;23.80;68.40;;;;;;5093891;28;20647;-70
2022/08/19 10:00:08;;;;;;;5.28;4.88;;;23.80;68.50;;;;;;5093516;28;20722;-70
2022/08/19 10:02:35;;;;;;;5.43;5.03;;;23.80;68.40;;;;;;5110907;28;20215;-70
2022/08/19 10:07:46;;;;;;;5.43;5.03;;;23.80;68.60;;;;;;5111941;28;20740;-70
2022/08/19 10:10:12;;;;;;;5.63;5.20;;;23.80;68.70;;;;;;5076635;28;20176;-70
2022/08/19 10:12:38;;;;;;;5.38;4.97;;;23.80;68.60;;;;;;5112235;28;20283;-70
2022/08/19 10:15:06;;;;;;;5.10;4.70;;;23.80;68.70;;;;;;5076989;28;20192;-71
2022/08/19 10:17:34;;;;;;;5.82;5.32;;;23.80;68.70;;;;;;5093745;28;20213;-70
2022/08/19 10:20:03;;;;;;;5.68;5.18;;;23.80;68.70;;;;;;5076085;28;20195;-70
2022/08/19 10:22:29;;;;;;;5.53;5.13;;;23.80;68.70;;;;;;5111886;28;20220;-70
2022/08/19 10:24:56;;;;;;;5.72;5.32;;;23.80;68.50;;;;;;5076889;28;20222;-70
2022/08/19 10:27:22;;;;;;;5.25;4.85;;;23.80;68.60;;;;;;5093749;28;20187;-70
2022/08/19 10:29:48;;;;;;;5.50;5.10;;;23.80;68.50;;;;;;5093148;28;20181;-70
2022/08/19 10:32:14;;;;;;;5.30;4.90;;;23.80;68.40;;;;;;5076708;28;20237;-70
2022/08/19 10:34:40;;;;;;;5.60;5.20;;;23.80;68.50;;;;;;5076656;28;20275;-70
2022/08/19 10:37:06;;;;;;;4.82;4.43;;;23.80;68.50;;;;;;5096315;28;20195;-70
2022/08/19 10:39:35;;;;;;;6.00;5.50;;;23.80;68.50;;;;;;5097804;28;20200;-69
2022/08/19 10:42:10;;;;;;;5.03;4.63;;;23.80;68.50;;;;;;5077490;28;20180;-69
2022/08/19 10:44:36;;;;;;;5.15;4.75;;;23.80;68.60;;;;;;5115536;28;20247;-69
2022/08/19 10:47:03;;;;;;;5.50;5.10;;;23.80;68.60;;;;;;5114495;28;20181;-70
2022/08/19 10:49:29;;;;;;;5.18;4.78;;;23.80;68.50;;;;;;5114987;28;20249;-70
2022/08/19 10:57:28;;;;;;;5.50;5.10;;;23.80;68.70;;;;;;5114272;28;20237;-70
2022/08/19 10:59:55;;;;;;;5.45;5.05;;;23.80;68.70;;;;;;5114835;28;20188;-70
2022/08/19 11:02:21;;;;;;;5.68;5.28;;;23.80;68.60;;;;;;5114207;28;20639;-70
2022/08/19 11:04:49;;;;;;;4.93;4.60;;;23.80;68.70;;;;;;5114130;28;20265;-70
2022/08/19 11:07:15;;;;;;;5.70;5.30;;;23.80;68.60;;;;;;5113739;28;20176;-70
2022/08/19 11:09:42;;;;;;;5.05;4.72;;;23.80;68.60;;;;;;5113620;28;20237;-70
2022/08/19 11:12:09;;;;;;;4.82;4.53;;;23.80;68.60;;;;;;5110468;28;20188;-71
2022/08/19 11:14:36;;;;;;;5.45;5.05;;;23.80;68.70;;;;;;5084731;28;20184;-71
2022/08/19 11:17:04;;;;;;;5.65;5.25;;;23.80;68.70;;;;;;5106708;28;20186;-70
2022/08/19 11:19:31;;;;;;;5.65;5.25;;;23.80;68.70;;;;;;5096046;28;20196;-71
2022/08/19 11:22:01;;;;;;;5.72;5.32;;;23.80;68.80;;;;;;5111778;27;20655;-71
2022/08/19 11:24:27;;;;;;;5.28;4.88;;;23.80;68.60;;;;;;5114673;28;20223;-71
2022/08/19 11:26:59;;;;;;;5.40;5.00;;;23.80;68.80;;;;;;5096896;28;20188;-70
2022/08/19 11:29:27;;;;;;;4.85;4.55;;;23.80;68.80;;;;;;5114188;28;20203;-71
2022/08/19 11:31:54;;;;;;;5.13;4.72;;;23.80;68.80;;;;;;5113562;28;20849;-71
2022/08/19 11:34:27;;;;;;;5.50;5.10;;;23.80;68.80;;;;;;5095334;28;20184;-70
2022/08/19 11:36:57;;;;;;;5.88;5.45;;;23.80;69.00;;;;;;5104883;28;20188;-70
2022/08/19 11:39:25;;;;;;;5.15;4.75;;;23.80;68.90;;;;;;5112869;28;20204;-70
2022/08/19 11:41:51;;;;;;;5.47;5.07;;;23.80;68.90;;;;;;5113758;27;20188;-70
2022/08/19 11:44:17;;;;;;;5.20;4.80;;;23.80;68.90;;;;;;5113260;28;20222;-70
2022/08/19 11:46:45;;;;;;;5.50;5.10;;;23.80;68.90;;;;;;5113273;28;20261;-70
2022/08/19 11:49:18;;;;;;;5.63;5.22;;;23.80;69.00;;;;;;5112958;28;20204;-70
2022/08/19 11:51:45;;;;;;;4.97;4.60;;;23.80;69.50;;;;;;5113100;28;20266;-70
2022/08/19 11:54:13;;;;;;;5.43;5.03;;;23.80;69.00;;;;;;5100090;28;20194;-70
2022/08/19 11:56:41;;;;;;;5.47;5.07;;;23.80;69.00;;;;;;5081921;28;20272;-70
2022/08/19 11:59:07;;;;;;;5.63;5.22;;;23.80;68.90;;;;;;5114116;28;20256;-70
2022/08/19 12:01:34;;;;;;;5.40;5.00;;;23.80;68.90;;;;;;5112875;28;20261;-69
2022/08/19 12:04:00;;;;;;;5.35;4.95;;;23.80;68.90;;;;;;5114056;28;20216;-70
2022/08/19 12:06:31;;;;;;;5.43;5.03;;;23.80;69.00;;;;;;5079277;28;20176;-70
2022/08/19 12:09:02;;;;;;;5.18;4.78;;;23.80;69.00;;;;;;5095694;28;20210;-70
2022/08/19 12:11:28;;;;;;;5.03;4.65;;;23.80;69.00;;;;;;5091760;28;20173;-70
2022/08/19 12:13:54;;;;;;;5.00;4.60;;;23.80;69.00;;;;;;5112405;28;20681;-70
2022/08/19 12:16:26;;;;;;;4.65;4.35;;;23.80;69.00;;;;;;5113079;28;20714;-71
2022/08/19 12:18:54;;;;;;;5.07;4.68;;;23.80;69.00;;;;;;5095545;28;20631;-70
2022/08/19 12:21:28;;;;;;;5.38;4.97;;;23.80;69.00;;;;;;5113200;28;20180;-70
2022/08/19 12:23:56;;;;;;;4.65;4.35;;;23.80;69.10;;;;;;5074658;28;20243;-70
2022/08/19 12:26:24;;;;;;;4.72;4.35;;;23.80;69.20;;;;;;5081596;28;20176;-70
2022/08/19 12:28:50;;;;;;;4.68;4.38;;;23.80;69.00;;;;;;5103778;28;20199;-70
2022/08/19 12:31:16;;;;;;;4.47;4.18;;;23.80;69.00;;;;;;5112658;28;20175;-70
2022/08/19 12:33:42;;;;;;;4.50;4.20;;;23.80;69.00;;;;;;5091310;28;20188;-70
2022/08/19 12:36:11;;;;;;;4.43;4.13;;;23.80;69.00;;;;;;5058591;28;20188;-70
2022/08/19 12:38:39;;;;;;;4.53;4.22;;;23.80;69.00;;;;;;5093065;28;20197;-70
2022/08/19 12:41:07;;;;;;;4.25;3.95;;;23.80;69.00;;;;;;5074398;28;20200;-70
2022/08/19 12:43:34;;;;;;;4.60;4.30;;;23.80;69.00;;;;;;5092928;28;20220;-70
2022/08/19 12:46:01;;;;;;;4.70;4.35;;;23.80;69.30;;;;;;5074852;28;20177;-70
2022/08/19 12:48:27;;;;;;;4.68;4.28;;;23.80;69.10;;;;;;5074854;28;20197;-70
2022/08/19 12:50:54;;;;;;;4.25;3.95;;;23.70;69.00;;;;;;5092256;28;20201;-70
2022/08/19 12:53:19;;;;;;;4.15;3.85;;;23.80;69.00;;;;;;5074747;28;20189;-70
2022/08/19 12:55:45;;;;;;;4.68;4.28;;;23.80;69.00;;;;;;5058091;28;20191;-70
2022/08/19 12:58:12;;;;;;;4.40;4.10;;;23.80;69.00;;;;;;5108919;28;20211;-70
2022/08/19 13:00:39;;;;;;;4.05;3.75;;;23.80;69.10;;;;;;5112310;28;20180;-70
2022/08/19 13:03:05;;;;;;;4.90;4.50;;;23.80;69.10;;;;;;5111585;28;20227;-70
2022/08/19 13:05:33;;;;;;;4.05;3.75;;;23.80;69.20;;;;;;5113009;28;20183;-70
2022/08/19 13:08:00;;;;;;;4.28;3.97;;;23.80;69.30;;;;;;5112734;28;20204;-70
2022/08/19 13:10:35;;;;;;;4.30;4.00;;;23.80;70.10;;;;;;5112414;28;20176;-70
2022/08/19 13:13:05;;;;;;;4.20;3.90;;;23.80;69.40;;;;;;5111744;28;20183;-69
2022/08/19 13:15:36;;;;;;;4.70;4.40;;;23.70;69.20;;;;;;5112824;28;20180;-70
2022/08/19 13:18:03;;;;;;;4.60;4.30;;;23.70;69.20;;;;;;5112770;28;20227;-71
2022/08/19 13:20:29;;;;;;;4.50;4.20;;;23.80;69.20;;;;;;5111076;28;20180;-71
2022/08/19 13:22:56;;;;;;;4.28;3.97;;;23.80;69.10;;;;;;5111245;28;20260;-70
2022/08/19 13:25:23;;;;;;;4.40;4.10;;;23.80;69.20;;;;;;5111649;28;20176;-70